This is the latest recevied weather packets stored in our database for station/object OK1FRN-6. If no packets are shown the sender has not sent any weather packets the latest 10 day(s).
| Time | Temp. | Humidity | Pressure | Rain* | Wind** | Luminosity | Snow |
|---|---|---|---|---|---|---|---|
| 1777893709 | 27.22° C | 31% | 1014.2 hPa | - | - | - | - |
| 1777893402 | 27.22° C | 31% | 1014.3 hPa | - | - | - | - |
| 1777892787 | 26.11° C | 33% | 1014.4 hPa | - | - | - | - |
| 1777892480 | 26.11° C | 32% | 1014.5 hPa | - | - | - | - |
| 1777890943 | 26.67° C | 32% | 1014.8 hPa | - | - | - | - |
| 1777890635 | 27.22° C | 33% | 1014.9 hPa | - | - | - | - |
| 1777889407 | 26.11° C | 33% | 1015 hPa | - | - | - | - |
| 1777889099 | 26.11° C | 34% | 1015.1 hPa | - | - | - | - |
| 1777888792 | 25.56° C | 34% | 1015.1 hPa | - | - | - | - |
| 1777888485 | 25.56° C | 34% | 1015.1 hPa | - | - | - | - |
| 1777888178 | 25.56° C | 34% | 1015.2 hPa | - | - | - | - |
| 1777887870 | 25° C | 35% | 1015.2 hPa | - | - | - | - |
| 1777886027 | 23.89° C | 38% | 1015.2 hPa | - | - | - | - |
| 1777885720 | 23.89° C | 38% | 1015.2 hPa | - | - | - | - |
| 1777885106 | 23.33° C | 39% | 1015.3 hPa | - | - | - | - |
| 1777884185 | 23.33° C | 40% | 1015 hPa | - | - | - | - |
| 1777883265 | 22.78° C | 39% | 1015 hPa | - | - | - | - |
| 1777882957 | 23.33° C | 38% | 1015 hPa | - | - | - | - |
| 1777882343 | 24.44° C | 38% | 1014.8 hPa | - | - | - | - |
| 1777882037 | 24.44° C | 38% | 1014.8 hPa | - | - | - | - |
| 1777881422 | 23.89° C | 39% | 1014.8 hPa | - | - | - | - |
| 1777880808 | 22.78° C | 41% | 1014.9 hPa | - | - | - | - |
| 1777880195 | 22.78° C | 41% | 1015 hPa | - | - | - | - |
| 1777878354 | 19.44° C | 48% | 1015 hPa | - | - | - | - |
| 1777877741 | 18.33° C | 50% | 1014.9 hPa | - | - | - | - |
* Rain since midnight (hover to see other rain measurements)
** Current wind speed in m/s (hover to see current wind gust speed)